createdAt,value
2022-10-14T00:01:24.608Z,17.60
2022-10-14T00:03:57.131Z,17.61
2022-10-14T00:06:26.614Z,17.64
2022-10-14T00:08:53.173Z,17.64
2022-10-14T00:11:22.945Z,17.63
2022-10-14T00:14:15.317Z,17.59
2022-10-14T00:16:43.582Z,17.61
2022-10-14T00:19:11.322Z,17.59
2022-10-14T00:21:39.778Z,17.58
2022-10-14T00:24:16.719Z,17.58
2022-10-14T00:26:43.252Z,17.61
2022-10-14T00:29:13.532Z,17.59
2022-10-14T00:31:40.375Z,17.61
2022-10-14T00:34:16.026Z,17.60
2022-10-14T00:36:43.694Z,17.60
2022-10-14T00:39:15.338Z,17.59
2022-10-14T00:41:41.879Z,17.59
2022-10-14T00:44:14.235Z,17.61
2022-10-14T00:46:43.256Z,17.64
2022-10-14T00:49:12.091Z,17.66
2022-10-14T00:51:41.026Z,17.66
2022-10-14T00:54:13.564Z,17.67
2022-10-14T00:56:41.996Z,17.67
2022-10-14T00:59:10.783Z,17.67
2022-10-14T01:01:37.513Z,17.68
2022-10-14T01:04:06.479Z,17.70
2022-10-14T01:06:50.854Z,17.69
2022-10-14T01:09:26.942Z,17.70
2022-10-14T01:12:28.137Z,17.71
2022-10-14T01:15:20.718Z,17.72
2022-10-14T01:18:11.994Z,17.73
2022-10-14T01:21:10.020Z,17.73
2022-10-14T01:24:05.602Z,17.74
2022-10-14T01:26:55.402Z,17.73
2022-10-14T01:29:54.873Z,17.73
2022-10-14T01:32:27.632Z,17.71
2022-10-14T01:35:08.066Z,17.69
2022-10-14T01:37:39.507Z,17.68
2022-10-14T01:40:12.819Z,17.67
2022-10-14T01:42:43.071Z,17.68
2022-10-14T01:45:32.214Z,17.68
2022-10-14T01:48:00.681Z,17.71
2022-10-14T01:50:30.550Z,17.74
2022-10-14T01:53:09.053Z,17.72
2022-10-14T01:55:40.329Z,17.74
2022-10-14T01:58:09.165Z,17.74
2022-10-14T02:00:36.191Z,17.74
2022-10-14T02:03:02.716Z,17.73
2022-10-14T02:05:39.042Z,17.73
2022-10-14T02:08:39.309Z,17.70
2022-10-14T02:11:11.207Z,17.69
2022-10-14T02:14:07.062Z,17.66
2022-10-14T02:16:39.328Z,17.68
2022-10-14T02:19:28.389Z,17.68
2022-10-14T02:22:04.566Z,17.67
2022-10-14T02:24:41.334Z,17.65
2022-10-14T02:27:13.362Z,17.65
2022-10-14T02:29:43.726Z,17.65
2022-10-14T02:32:12.924Z,17.62
2022-10-14T02:34:49.119Z,17.62
2022-10-14T02:37:18.596Z,17.63
2022-10-14T02:39:52.014Z,17.64
2022-10-14T02:42:19.058Z,17.67
2022-10-14T02:44:59.356Z,17.67
2022-10-14T02:47:26.714Z,17.69
2022-10-14T02:49:53.968Z,17.66
2022-10-14T02:52:20.891Z,17.64
2022-10-14T02:54:48.407Z,17.64
2022-10-14T02:57:14.913Z,17.62
2022-10-14T02:59:41.388Z,17.60
2022-10-14T03:02:08.741Z,17.58
2022-10-14T03:04:42.823Z,17.56
2022-10-14T03:07:10.091Z,17.58
2022-10-14T03:09:42.392Z,17.60
2022-10-14T03:12:09.656Z,17.61
2022-10-14T03:14:40.647Z,17.61
2022-10-14T03:17:09.581Z,17.61
2022-10-14T03:19:36.086Z,17.64
2022-10-14T03:22:02.615Z,17.64
2022-10-14T03:24:34.118Z,17.65
2022-10-14T03:27:20.159Z,17.65
2022-10-14T03:29:50.838Z,17.64
2022-10-14T03:32:21.978Z,17.65
2022-10-14T03:35:24.055Z,17.66
2022-10-14T03:37:55.324Z,17.64
2022-10-14T03:40:28.365Z,17.64
2022-10-14T03:42:58.064Z,17.65
2022-10-14T03:45:28.463Z,17.66
2022-10-14T03:47:56.289Z,17.67
2022-10-14T03:50:22.918Z,17.66
2022-10-14T03:52:55.642Z,17.64
2022-10-14T03:55:29.863Z,17.66
2022-10-14T03:57:56.633Z,17.65
2022-10-14T04:00:23.305Z,17.65
2022-10-14T04:03:01.590Z,17.64
2022-10-14T04:05:36.957Z,17.63
2022-10-14T04:08:09.806Z,17.63
2022-10-14T04:10:39.412Z,17.65
2022-10-14T04:13:08.831Z,17.67
2022-10-14T04:15:40.536Z,17.69
2022-10-14T04:18:34.896Z,17.71
2022-10-14T04:21:06.695Z,17.72
2022-10-14T04:23:34.743Z,17.73
2022-10-14T04:26:11.564Z,17.73
2022-10-14T04:28:39.161Z,17.72
2022-10-14T04:31:12.432Z,17.71
2022-10-14T04:33:50.336Z,17.69
2022-10-14T04:36:16.797Z,17.68
2022-10-14T04:38:44.098Z,17.67
2022-10-14T04:41:11.214Z,17.64
2022-10-14T04:43:43.764Z,17.64
2022-10-14T04:46:37.283Z,17.63
2022-10-14T04:49:04.939Z,17.62
2022-10-14T04:51:38.463Z,17.64
2022-10-14T04:54:28.143Z,17.63
2022-10-14T04:56:57.563Z,17.63
2022-10-14T04:59:24.136Z,17.61
2022-10-14T05:02:00.239Z,17.62
2022-10-14T05:04:38.945Z,17.64
2022-10-14T05:07:06.690Z,17.64
2022-10-14T05:09:33.441Z,17.64
2022-10-14T05:12:00.245Z,17.64
2022-10-14T05:14:37.217Z,17.65
2022-10-14T05:17:14.330Z,17.64
2022-10-14T05:19:40.834Z,17.64
2022-10-14T05:22:07.595Z,17.65
2022-10-14T05:24:40.828Z,17.66
2022-10-14T05:27:07.941Z,17.68
2022-10-14T05:29:35.058Z,17.68
2022-10-14T05:32:02.244Z,17.69
2022-10-14T05:34:37.360Z,17.72
2022-10-14T05:37:07.193Z,17.72
2022-10-14T05:39:41.236Z,17.73
2022-10-14T05:42:08.072Z,17.73
2022-10-14T05:44:38.312Z,17.74
2022-10-14T05:47:04.889Z,17.74
2022-10-14T05:49:31.531Z,17.73
2022-10-14T05:52:00.993Z,17.72
2022-10-14T05:54:34.956Z,17.70
2022-10-14T05:57:03.717Z,17.70
2022-10-14T05:59:30.324Z,17.69
2022-10-14T06:01:57.630Z,17.70
2022-10-14T06:04:26.470Z,17.71
2022-10-14T06:06:53.130Z,17.70
2022-10-14T06:09:20.128Z,17.69
2022-10-14T06:11:46.791Z,17.71
2022-10-14T06:14:16.222Z,17.74
2022-10-14T06:16:42.898Z,17.77
2022-10-14T06:19:09.842Z,17.81
2022-10-14T06:21:36.843Z,17.81
2022-10-14T06:24:08.028Z,17.81
2022-10-14T06:26:34.557Z,17.83
2022-10-14T06:29:01.122Z,17.83
2022-10-14T06:31:32.170Z,17.83
2022-10-14T06:34:06.878Z,17.83
2022-10-14T06:36:34.536Z,17.84
2022-10-14T06:39:01.261Z,17.85
2022-10-14T06:41:27.838Z,17.84
2022-10-14T06:43:55.239Z,17.84
2022-10-14T06:46:22.545Z,17.84
2022-10-14T06:48:50.513Z,17.86
2022-10-14T06:51:17.834Z,17.87
2022-10-14T06:53:44.327Z,17.88
2022-10-14T06:56:11.966Z,17.89
2022-10-14T06:58:38.462Z,17.87
2022-10-14T07:01:07.108Z,17.86
2022-10-14T07:03:38.820Z,17.85
2022-10-14T07:06:06.773Z,17.86
2022-10-14T07:08:33.325Z,17.85
2022-10-14T07:10:59.904Z,17.86
2022-10-14T07:13:26.791Z,17.88
2022-10-14T07:15:53.491Z,17.89
2022-10-14T07:18:20.040Z,17.90
2022-10-14T07:20:46.716Z,17.94
2022-10-14T07:23:13.501Z,17.97
2022-10-14T07:25:41.387Z,17.97
2022-10-14T07:28:07.834Z,18.00
2022-10-14T07:30:34.845Z,18.02
2022-10-14T07:33:01.489Z,18.04
2022-10-14T07:35:32.480Z,18.06
2022-10-14T07:37:59.586Z,18.10
2022-10-14T07:40:26.471Z,18.11
2022-10-14T07:42:52.986Z,18.13
2022-10-14T07:45:21.132Z,18.11
2022-10-14T07:47:49.668Z,18.14
2022-10-14T07:50:16.260Z,18.14
2022-10-14T07:52:42.903Z,18.15
2022-10-14T07:55:09.487Z,18.17
2022-10-14T07:57:35.970Z,18.17
2022-10-14T08:00:03.941Z,18.17
2022-10-14T08:02:38.598Z,18.19
2022-10-14T08:05:36.657Z,18.22
2022-10-14T08:07:53.226Z,18.25
2022-10-14T08:10:19.909Z,18.27
2022-10-14T08:12:46.517Z,18.29
2022-10-14T08:15:16.222Z,18.31
2022-10-14T08:17:42.839Z,18.34
2022-10-14T08:20:09.724Z,18.37
2022-10-14T08:22:36.204Z,18.40
2022-10-14T08:25:04.465Z,18.42
2022-10-14T08:27:31.180Z,18.46
2022-10-14T08:29:57.646Z,18.48
2022-10-14T08:32:24.533Z,18.50
2022-10-14T08:34:51.339Z,18.54
2022-10-14T08:37:17.878Z,18.56
2022-10-14T08:39:44.513Z,18.58
2022-10-14T08:42:33.994Z,18.60
2022-10-14T08:45:15.321Z,18.64
2022-10-14T08:47:45.822Z,18.68
2022-10-14T08:50:31.892Z,18.73
2022-10-14T08:53:22.887Z,18.78
2022-10-14T08:55:56.173Z,18.82
2022-10-14T08:58:38.460Z,18.84
2022-10-14T09:01:13.380Z,18.83
2022-10-14T09:03:42.045Z,18.85
2022-10-14T09:06:18.713Z,18.87
2022-10-14T09:08:48.672Z,18.91
2022-10-14T09:11:19.022Z,18.92
2022-10-14T09:14:07.074Z,18.94
2022-10-14T09:16:37.339Z,18.98
2022-10-14T09:19:09.861Z,19.01
2022-10-14T09:21:52.181Z,19.05
2022-10-14T09:24:27.659Z,19.10
2022-10-14T09:27:00.448Z,19.12
2022-10-14T09:29:30.654Z,19.16
2022-10-14T09:32:01.227Z,19.18
2022-10-14T09:34:34.599Z,19.24
2022-10-14T09:37:20.996Z,19.30
2022-10-14T09:39:49.145Z,19.34
2022-10-14T09:42:22.536Z,19.38
2022-10-14T09:45:14.956Z,19.40
2022-10-14T09:47:55.867Z,19.43
2022-10-14T09:50:33.023Z,19.46
2022-10-14T09:53:10.649Z,19.46
2022-10-14T09:55:46.621Z,19.50
2022-10-14T09:58:17.753Z,19.50
2022-10-14T10:00:46.152Z,19.53
2022-10-14T10:03:32.795Z,19.52
2022-10-14T10:06:08.747Z,19.53
2022-10-14T10:08:54.112Z,19.54
2022-10-14T10:11:28.169Z,19.59
2022-10-14T10:14:18.632Z,19.61
2022-10-14T10:16:45.273Z,19.65
2022-10-14T10:19:37.058Z,19.65
2022-10-14T10:22:24.151Z,19.70
2022-10-14T10:25:14.552Z,19.74
2022-10-14T10:27:45.872Z,19.75
2022-10-14T10:30:18.765Z,19.77
2022-10-14T10:32:54.824Z,19.77
2022-10-14T10:35:57.877Z,19.77
2022-10-14T10:38:37.658Z,19.80
2022-10-14T10:41:19.959Z,19.81
2022-10-14T10:44:18.813Z,19.83
2022-10-14T10:47:04.125Z,19.82
2022-10-14T10:49:30.644Z,19.82
2022-10-14T10:52:08.675Z,19.81
2022-10-14T10:55:02.993Z,19.81
2022-10-14T10:57:57.438Z,19.80
2022-10-14T11:03:13.344Z,19.77
2022-10-14T11:06:14.882Z,19.72
2022-10-14T11:09:17.170Z,19.72
2022-10-14T11:12:14.883Z,19.72
2022-10-14T11:15:32.067Z,19.70
2022-10-14T11:18:01.543Z,19.72
2022-10-14T11:20:42.870Z,19.72
2022-10-14T11:23:34.773Z,19.75
2022-10-14T11:26:28.714Z,19.73
2022-10-14T11:29:13.739Z,19.75
2022-10-14T11:31:57.636Z,19.76
2022-10-14T11:34:56.995Z,19.78
2022-10-14T11:37:42.067Z,19.80
2022-10-14T11:40:18.280Z,19.80
2022-10-14T11:42:56.249Z,19.83
2022-10-14T11:45:46.980Z,19.82
2022-10-14T11:48:16.641Z,19.83
2022-10-14T11:50:47.630Z,19.83
2022-10-14T11:53:23.344Z,19.80
2022-10-14T11:56:05.920Z,19.82
2022-10-14T11:58:37.408Z,19.84
2022-10-14T12:01:06.855Z,19.85
2022-10-14T12:04:15.418Z,19.82
2022-10-14T12:06:51.965Z,19.82
2022-10-14T12:09:27.573Z,19.81
2022-10-14T12:12:05.434Z,19.81
2022-10-14T12:14:59.541Z,19.80
2022-10-14T12:17:46.831Z,19.80
2022-10-14T12:20:22.358Z,19.81
2022-10-14T12:22:50.642Z,19.82
2022-10-14T12:25:24.539Z,19.85
2022-10-14T12:27:52.259Z,19.84
2022-10-14T12:30:40.988Z,19.84
2022-10-14T12:33:12.810Z,19.86
2022-10-14T12:36:00.145Z,19.87
2022-10-14T12:38:29.331Z,19.88
2022-10-14T12:41:32.958Z,19.89
2022-10-14T12:44:04.144Z,19.92
2022-10-14T12:46:31.420Z,19.91
2022-10-14T12:48:59.724Z,19.90
2022-10-14T12:51:27.318Z,19.89
2022-10-14T12:54:16.255Z,19.91
2022-10-14T12:57:00.123Z,19.94
2022-10-14T12:59:29.729Z,19.98
2022-10-14T13:02:05.042Z,19.99
2022-10-14T13:04:35.834Z,20.00
2022-10-14T13:07:38.891Z,20.04
2022-10-14T13:10:41.715Z,20.06
2022-10-14T13:13:47.723Z,20.10
2022-10-14T13:16:21.290Z,20.11
2022-10-14T13:18:57.887Z,20.08
2022-10-14T13:21:36.843Z,20.09
2022-10-14T13:24:16.942Z,20.12
2022-10-14T13:26:55.340Z,20.13
2022-10-14T13:29:43.620Z,20.16
2022-10-14T13:32:40.783Z,20.15
2022-10-14T13:35:35.078Z,20.14
2022-10-14T13:38:05.918Z,20.15
2022-10-14T13:40:36.551Z,20.18
2022-10-14T13:43:26.936Z,20.20
2022-10-14T13:46:03.613Z,20.25
2022-10-14T13:48:43.955Z,20.25
2022-10-14T13:51:24.641Z,20.29
2022-10-14T13:54:28.616Z,20.32
2022-10-14T13:57:34.612Z,20.34
2022-10-14T14:00:38.132Z,20.34
2022-10-14T14:02:41.638Z,20.34
2022-10-14T14:05:19.121Z,20.35
2022-10-14T14:10:39.172Z,20.34
2022-10-14T14:13:13.252Z,20.33
2022-10-14T14:15:49.805Z,20.29
2022-10-14T14:18:56.042Z,20.25
2022-10-14T14:21:30.314Z,20.22
2022-10-14T14:24:25.496Z,20.18
2022-10-14T14:26:54.425Z,20.18
2022-10-14T14:29:27.521Z,20.18
2022-10-14T14:32:06.212Z,20.17
2022-10-14T14:34:37.179Z,20.19
2022-10-14T14:37:24.761Z,20.21
2022-10-14T14:40:00.246Z,20.22
2022-10-14T14:42:30.654Z,20.24
2022-10-14T14:45:08.407Z,20.25
2022-10-14T14:47:35.091Z,20.27
2022-10-14T14:50:25.408Z,20.29
2022-10-14T14:52:51.668Z,20.30
2022-10-14T14:55:44.536Z,20.31
2022-10-14T14:58:21.253Z,20.33
2022-10-14T15:00:49.982Z,20.33
2022-10-14T15:03:16.700Z,20.34
2022-10-14T15:05:56.082Z,20.34
2022-10-14T15:08:27.376Z,20.34
2022-10-14T15:10:57.237Z,20.36
2022-10-14T15:13:37.930Z,20.35
2022-10-14T15:16:06.915Z,20.36
2022-10-14T15:18:34.646Z,20.36
2022-10-14T15:21:14.057Z,20.35
2022-10-14T15:24:00.493Z,20.37
2022-10-14T15:26:33.624Z,20.37
2022-10-14T15:32:15.713Z,20.36
2022-10-14T15:34:42.862Z,20.37
2022-10-14T15:37:15.699Z,20.37
2022-10-14T15:39:42.177Z,20.37
2022-10-14T15:42:12.291Z,20.34
2022-10-14T15:44:42.767Z,20.31
2022-10-14T15:47:21.622Z,20.30
2022-10-14T15:49:48.382Z,20.30
2022-10-14T15:52:16.391Z,20.29
2022-10-14T15:54:46.591Z,20.28
2022-10-14T15:57:16.599Z,20.27
2022-10-14T15:59:48.229Z,20.26
2022-10-14T16:02:21.763Z,20.25
2022-10-14T16:13:53.192Z,20.11
2022-10-14T16:16:25.395Z,20.06
2022-10-14T16:18:52.449Z,20.03
2022-10-14T16:21:18.921Z,20.00
2022-10-14T16:23:45.457Z,19.98
2022-10-14T16:26:14.333Z,19.94
2022-10-14T16:28:40.976Z,19.91
2022-10-14T16:31:12.460Z,19.87
2022-10-14T16:33:41.759Z,19.83
2022-10-14T16:36:14.136Z,19.79
2022-10-14T16:38:40.657Z,19.75
2022-10-14T16:41:10.007Z,19.70
2022-10-14T16:43:36.626Z,19.65
2022-10-14T16:46:05.257Z,19.61
2022-10-14T16:48:35.915Z,19.58
2022-10-14T16:51:03.414Z,19.55
2022-10-14T16:53:45.012Z,19.51
2022-10-14T16:56:58.109Z,19.46
2022-10-14T16:59:25.214Z,19.40
2022-10-14T17:01:52.238Z,19.35
2022-10-14T17:04:22.224Z,19.33
2022-10-14T17:06:55.514Z,19.29
2022-10-14T17:11:57.984Z,19.24
2022-10-14T17:14:31.295Z,19.23
2022-10-14T17:16:59.695Z,19.22
2022-10-14T17:19:26.912Z,19.19
2022-10-14T17:21:54.451Z,19.15
2022-10-14T17:24:26.093Z,19.13
2022-10-14T17:26:52.627Z,19.13
2022-10-14T17:29:23.355Z,19.12
2022-10-14T17:31:50.225Z,19.11
2022-10-14T17:34:17.895Z,19.09
2022-10-14T17:36:44.452Z,19.07
2022-10-14T17:39:22.859Z,19.06
2022-10-14T17:41:55.861Z,19.07
2022-10-14T17:44:22.848Z,19.04
2022-10-14T17:46:49.318Z,19.02
2022-10-14T17:49:16.023Z,18.99
2022-10-14T17:51:42.474Z,18.97
2022-10-14T17:54:13.203Z,18.92
2022-10-14T17:56:39.764Z,18.90
2022-10-14T17:59:10.329Z,18.89
2022-10-14T18:02:00.881Z,18.89
2022-10-14T18:04:28.272Z,18.86
2022-10-14T18:06:54.740Z,18.86
2022-10-14T18:09:21.287Z,18.83
2022-10-14T18:14:42.302Z,18.81
2022-10-14T18:17:12.871Z,18.80
2022-10-14T18:19:40.915Z,18.79
2022-10-14T18:22:07.860Z,18.78
2022-10-14T18:24:38.699Z,18.77
2022-10-14T18:27:05.545Z,18.76
2022-10-14T18:29:32.052Z,18.74
2022-10-14T18:31:58.678Z,18.72
2022-10-14T18:34:27.227Z,18.71
2022-10-14T18:36:53.720Z,18.71
2022-10-14T18:39:20.542Z,18.68
2022-10-14T18:41:47.102Z,18.66
2022-10-14T18:44:17.751Z,18.65
2022-10-14T18:46:44.400Z,18.64
2022-10-14T18:49:11.880Z,18.63
2022-10-14T18:51:40.342Z,18.61
2022-10-14T18:54:17.185Z,18.57
2022-10-14T18:56:44.617Z,18.49
2022-10-14T18:59:17.801Z,18.44
2022-10-14T19:01:45.827Z,18.39
2022-10-14T19:04:38.393Z,18.29
2022-10-14T19:07:08.426Z,18.25
2022-10-14T19:09:35.020Z,18.18
2022-10-14T19:12:21.781Z,18.15
2022-10-14T19:14:49.721Z,18.15
2022-10-14T19:17:16.195Z,18.17
2022-10-14T19:19:42.769Z,18.14
2022-10-14T19:22:10.453Z,18.13
2022-10-14T19:24:36.985Z,18.12
2022-10-14T19:27:03.548Z,18.12
2022-10-14T19:29:30.037Z,18.13
2022-10-14T19:31:56.489Z,18.12
2022-10-14T19:34:27.580Z,18.09
2022-10-14T19:36:54.421Z,18.06
2022-10-14T19:39:20.974Z,18.05
2022-10-14T19:41:47.537Z,18.01
2022-10-14T19:44:16.067Z,17.96
2022-10-14T19:46:43.841Z,17.95
2022-10-14T19:49:13.096Z,17.90
2022-10-14T19:51:39.828Z,17.86
2022-10-14T19:54:12.748Z,17.84
2022-10-14T19:56:39.337Z,17.81
2022-10-14T19:59:05.919Z,17.77
2022-10-14T20:01:32.504Z,17.74
2022-10-14T20:04:03.223Z,17.72
2022-10-14T20:06:32.731Z,17.68
2022-10-14T20:08:59.877Z,17.64
2022-10-14T20:11:26.384Z,17.60
2022-10-14T20:13:54.763Z,17.59
2022-10-14T20:16:21.211Z,17.55
2022-10-14T20:18:47.962Z,17.51
2022-10-14T20:21:16.077Z,17.45
2022-10-14T20:23:43.173Z,17.41
2022-10-14T20:26:18.374Z,17.36
2022-10-14T20:28:45.420Z,17.31
2022-10-14T20:31:15.782Z,17.29
2022-10-14T20:33:42.518Z,17.26
2022-10-14T20:36:14.392Z,17.22
2022-10-14T20:38:42.435Z,17.19
2022-10-14T20:41:16.932Z,17.18
2022-10-14T20:43:44.852Z,17.19
2022-10-14T20:46:12.034Z,17.20
2022-10-14T20:48:38.936Z,17.19
2022-10-14T20:51:14.346Z,17.18
2022-10-14T20:56:13.648Z,17.16
2022-10-14T20:58:40.518Z,17.14
2022-10-14T21:01:08.190Z,17.13
2022-10-14T21:03:35.174Z,17.12
2022-10-14T21:06:12.355Z,17.13
2022-10-14T21:08:39.924Z,17.12
2022-10-14T21:11:13.775Z,17.09
2022-10-14T21:14:02.174Z,17.06
2022-10-14T21:16:28.749Z,17.06
2022-10-14T21:19:09.238Z,17.05
2022-10-14T21:21:38.578Z,16.98
2022-10-14T21:24:06.503Z,16.90
2022-10-14T21:26:33.358Z,16.88
2022-10-14T21:29:02.665Z,16.85
2022-10-14T21:31:30.363Z,16.82
2022-10-14T21:34:24.736Z,16.78
2022-10-14T21:36:51.229Z,16.80
2022-10-14T21:39:18.418Z,16.80
2022-10-14T21:41:45.619Z,16.78
2022-10-14T21:44:17.536Z,16.77
2022-10-14T21:46:44.273Z,16.77
2022-10-14T21:49:11.481Z,16.77
2022-10-14T21:51:38.624Z,16.77
2022-10-14T21:54:12.171Z,16.77
2022-10-14T21:56:39.003Z,16.77
2022-10-14T21:59:06.136Z,16.78
2022-10-14T22:01:33.266Z,16.78
2022-10-14T22:04:05.650Z,16.79
2022-10-14T22:06:36.544Z,16.80
2022-10-14T22:09:05.754Z,16.81
2022-10-14T22:11:36.110Z,16.80
2022-10-14T22:14:08.563Z,16.83
2022-10-14T22:16:35.166Z,16.83
2022-10-14T22:19:04.120Z,16.84
2022-10-14T22:21:34.240Z,16.85
2022-10-14T22:24:03.741Z,16.86
2022-10-14T22:26:31.509Z,16.87
2022-10-14T22:29:17.465Z,16.84
2022-10-14T22:31:45.139Z,16.84
2022-10-14T22:34:15.474Z,16.83
2022-10-14T22:36:42.619Z,16.83
2022-10-14T22:39:14.443Z,16.84
2022-10-14T22:41:40.919Z,16.85
2022-10-14T22:44:10.641Z,16.82
2022-10-14T22:46:39.097Z,16.79
2022-10-14T22:49:06.195Z,16.77
2022-10-14T22:51:35.595Z,16.77
2022-10-14T22:54:06.146Z,16.77
2022-10-14T22:56:32.676Z,16.75
2022-10-14T22:59:05.131Z,16.75
2022-10-14T23:01:31.815Z,16.74
2022-10-14T23:04:02.938Z,16.73
2022-10-14T23:06:31.225Z,16.72
2022-10-14T23:09:00.346Z,16.69
2022-10-14T23:11:28.761Z,16.67
2022-10-14T23:14:02.835Z,16.65
2022-10-14T23:16:32.999Z,16.63
2022-10-14T23:18:59.587Z,16.62
2022-10-14T23:21:31.263Z,16.62
2022-10-14T23:24:02.518Z,16.63
2022-10-14T23:26:37.015Z,16.63
2022-10-14T23:29:09.710Z,16.63
2022-10-14T23:31:38.287Z,16.64
2022-10-14T23:34:11.667Z,16.63
2022-10-14T23:36:38.206Z,16.63
2022-10-14T23:39:05.805Z,16.64
2022-10-14T23:41:32.389Z,16.63
2022-10-14T23:44:00.578Z,16.62
2022-10-14T23:46:27.089Z,16.61
2022-10-14T23:49:06.622Z,16.60
2022-10-14T23:51:40.781Z,16.59
2022-10-14T23:54:07.815Z,16.55
2022-10-14T23:56:34.306Z,16.52
2022-10-14T23:59:00.794Z,16.48
